createdAt,value
2018-06-21T00:02:02.299Z,100399.17
2018-06-21T00:04:31.227Z,100400.51
2018-06-21T00:07:00.458Z,100393.14
2018-06-21T00:09:29.463Z,100389.25
2018-06-21T00:11:58.261Z,100385.83
2018-06-21T00:14:26.830Z,100386.78
2018-06-21T00:16:55.554Z,100385.50
2018-06-21T00:19:24.171Z,100382.44
2018-06-21T00:21:53.130Z,100390.34
2018-06-21T00:24:21.702Z,100389.03
2018-06-21T00:26:50.316Z,100369.36
2018-06-21T00:29:18.816Z,100370.72
2018-06-21T00:31:47.309Z,100365.09
2018-06-21T00:34:15.865Z,100366.96
2018-06-21T00:36:45.212Z,100370.09
2018-06-21T00:39:14.004Z,100363.91
2018-06-21T00:41:42.740Z,100363.50
2018-06-21T00:44:11.199Z,100356.93
2018-06-21T00:46:39.814Z,100350.41
2018-06-21T00:49:08.752Z,100352.66
2018-06-21T00:51:37.238Z,100353.58
2018-06-21T00:54:05.758Z,100345.74
2018-06-21T00:56:34.545Z,100341.41
2018-06-21T00:59:03.150Z,100337.88
2018-06-21T01:01:31.645Z,100328.25
2018-06-21T01:04:00.599Z,100326.95
2018-06-21T01:06:29.200Z,100315.53
2018-06-21T01:08:57.726Z,100313.38
2018-06-21T01:11:26.341Z,100304.65
2018-06-21T01:13:55.179Z,100304.70
2018-06-21T01:16:23.635Z,100300.36
2018-06-21T01:18:52.138Z,100300.83
2018-06-21T01:21:21.243Z,100305.64
2018-06-21T01:23:50.106Z,100305.20
2018-06-21T01:26:18.618Z,100306.54
2018-06-21T01:28:47.388Z,100309.60
2018-06-21T01:31:16.075Z,100300.38
2018-06-21T01:33:44.564Z,100300.36
2018-06-21T01:36:13.106Z,100298.16
2018-06-21T01:38:42.154Z,100295.54
2018-06-21T01:41:10.642Z,100291.59
2018-06-21T01:43:39.163Z,100286.32
2018-06-21T01:46:07.910Z,100275.34
2018-06-21T01:48:36.587Z,100278.83
2018-06-21T01:51:05.131Z,100271.83
2018-06-21T01:53:33.599Z,100275.36
2018-06-21T01:56:02.285Z,100276.23
2018-06-21T01:58:31.315Z,100274.06
2018-06-21T02:00:59.798Z,100271.89
2018-06-21T02:03:28.382Z,99993.64
2018-06-21T02:05:57.042Z,100259.62
2018-06-21T02:08:25.509Z,100256.57
2018-06-21T02:10:54.014Z,100255.70
2018-06-21T02:13:22.686Z,100253.94
2018-06-21T02:15:51.206Z,100251.31
2018-06-21T02:18:19.725Z,100247.39
2018-06-21T02:20:48.775Z,100247.37
2018-06-21T02:23:17.449Z,100244.71
2018-06-21T02:25:45.962Z,100238.98
2018-06-21T02:28:14.465Z,100244.63
2018-06-21T02:30:46.226Z,100243.73
2018-06-21T02:33:14.958Z,100244.63
2018-06-21T02:35:44.079Z,100244.20
2018-06-21T02:38:12.666Z,100241.10
2018-06-21T02:40:41.423Z,100233.63
2018-06-21T02:43:09.907Z,100229.20
2018-06-21T02:45:38.500Z,100228.30
2018-06-21T02:48:07.102Z,100226.58
2018-06-21T02:50:36.142Z,100224.38
2018-06-21T02:53:05.242Z,100220.42
2018-06-21T02:55:34.864Z,100220.87
2018-06-21T02:58:03.485Z,100218.24
2018-06-21T03:00:32.315Z,100217.40
2018-06-21T03:03:01.409Z,100218.69
2018-06-21T03:05:30.306Z,100221.36
2018-06-21T03:07:58.783Z,100221.39
2018-06-21T03:10:27.422Z,100217.95
2018-06-21T03:12:56.179Z,100208.78
2018-06-21T03:15:24.663Z,100207.09
2018-06-21T03:17:53.174Z,100205.81
2018-06-21T03:20:22.015Z,100195.32
2018-06-21T03:22:50.515Z,100197.52
2018-06-21T03:25:19.043Z,100189.20
2018-06-21T03:27:48.478Z,100177.38
2018-06-21T03:30:16.951Z,100168.17
2018-06-21T03:32:45.569Z,100157.23
2018-06-21T03:35:14.527Z,100152.02
2018-06-21T03:37:43.012Z,100146.80
2018-06-21T03:40:11.527Z,100134.11
2018-06-21T03:42:40.336Z,100134.12
2018-06-21T03:45:09.086Z,100140.71
2018-06-21T03:47:37.663Z,100142.48
2018-06-21T03:50:06.270Z,100140.77
2018-06-21T03:52:35.149Z,100137.72
2018-06-21T03:55:04.326Z,100139.50
2018-06-21T03:57:32.842Z,100141.28
2018-06-21T04:00:01.690Z,100003.43
2018-06-21T04:02:30.679Z,100129.95
2018-06-21T04:05:00.388Z,100123.80
2018-06-21T04:07:28.869Z,100116.38
2018-06-21T04:09:57.451Z,100115.08
2018-06-21T04:12:25.946Z,100106.31
2018-06-21T04:14:54.411Z,100120.80
2018-06-21T04:17:23.301Z,100126.09
2018-06-21T04:19:52.066Z,100116.89
2018-06-21T04:22:20.569Z,100105.03
2018-06-21T04:24:49.069Z,100100.22
2018-06-21T04:27:17.645Z,100087.09
2018-06-21T04:29:46.125Z,100080.55
2018-06-21T04:32:14.685Z,100067.84
2018-06-21T04:34:44.165Z,100065.25
2018-06-21T04:37:13.970Z,100068.79
2018-06-21T04:39:42.606Z,100061.82
2018-06-21T04:42:11.504Z,100059.22
2018-06-21T04:44:40.769Z,100057.07
2018-06-21T04:47:09.419Z,100055.80
2018-06-21T04:49:38.260Z,100054.91
2018-06-21T04:52:06.875Z,100063.72
2018-06-21T04:54:35.670Z,100058.44
2018-06-21T04:57:04.547Z,100056.67
2018-06-21T04:59:33.035Z,100061.93
2018-06-21T05:02:01.601Z,100059.29
2018-06-21T05:04:32.231Z,100055.77
2018-06-21T05:07:01.062Z,100051.82
2018-06-21T05:09:30.227Z,100044.78
2018-06-21T05:11:59.198Z,100044.78
2018-06-21T05:14:27.842Z,100034.26
2018-06-21T05:16:56.594Z,100036.89
2018-06-21T05:19:25.862Z,100032.94
2018-06-21T05:21:54.746Z,100031.64
2018-06-21T05:24:23.194Z,100029.47
2018-06-21T05:26:52.442Z,100033.84
2018-06-21T05:29:21.277Z,100033.84
2018-06-21T05:31:49.691Z,100030.35
2018-06-21T05:34:18.395Z,100032.56
2018-06-21T05:36:48.096Z,100024.64
2018-06-21T05:39:17.301Z,100022.45
2018-06-21T05:41:46.486Z,100015.02
2018-06-21T05:44:15.266Z,100009.75
2018-06-21T05:46:43.889Z,100007.55
2018-06-21T05:49:12.869Z,99983.81
2018-06-21T05:51:41.428Z,100010.64
2018-06-21T05:54:09.852Z,100006.66
2018-06-21T05:56:38.399Z,99997.46
2018-06-21T05:59:06.966Z,99991.32
2018-06-21T06:01:35.801Z,99994.83
2018-06-21T06:04:04.642Z,99986.94
2018-06-21T06:06:33.130Z,99989.13
2018-06-21T06:09:02.033Z,99985.20
2018-06-21T06:11:30.903Z,99984.77
2018-06-21T06:13:59.391Z,99985.19
2018-06-21T06:16:27.954Z,99980.80
2018-06-21T06:18:56.717Z,99978.16
2018-06-21T06:21:25.170Z,99974.66
2018-06-21T06:23:53.833Z,99976.86
2018-06-21T06:26:22.709Z,99968.97
2018-06-21T06:28:51.233Z,99963.27
2018-06-21T06:31:19.921Z,99958.03
2018-06-21T06:33:48.584Z,99957.20
2018-06-21T06:36:17.222Z,99963.80
2018-06-21T06:38:46.093Z,99959.84
2018-06-21T06:41:15.174Z,99958.09
2018-06-21T06:43:43.637Z,99946.23
2018-06-21T06:46:12.573Z,99939.66
2018-06-21T06:48:41.353Z,99939.17
2018-06-21T06:51:10.122Z,99942.24
2018-06-21T06:53:38.607Z,99941.41
2018-06-21T06:56:07.545Z,99936.16
2018-06-21T06:58:36.242Z,99938.34
2018-06-21T07:01:04.771Z,99936.15
2018-06-21T07:03:34.320Z,99920.36
2018-06-21T07:06:02.941Z,99913.34
2018-06-21T07:08:31.789Z,99912.49
2018-06-21T07:11:00.588Z,99904.16
2018-06-21T07:13:29.111Z,99905.48
2018-06-21T07:15:57.746Z,99902.85
2018-06-21T07:18:26.633Z,99900.66
2018-06-21T07:20:55.782Z,99898.91
2018-06-21T07:23:24.301Z,99885.30
2018-06-21T07:25:53.597Z,99882.67
2018-06-21T07:28:23.119Z,99882.23
2018-06-21T07:30:51.569Z,99882.67
2018-06-21T07:33:20.690Z,99880.92
2018-06-21T07:35:49.198Z,99877.41
2018-06-21T07:38:17.638Z,99883.11
2018-06-21T07:40:46.670Z,99881.80
2018-06-21T07:43:15.358Z,99880.92
2018-06-21T07:45:44.865Z,99884.00
2018-06-21T07:48:13.620Z,99626.41
2018-06-21T07:50:42.517Z,99873.90
2018-06-21T07:53:11.161Z,99870.83
2018-06-21T07:55:39.669Z,99879.61
2018-06-21T07:58:08.530Z,99865.12
2018-06-21T08:00:37.082Z,99867.75
2018-06-21T08:03:05.837Z,99862.92
2018-06-21T08:05:34.979Z,99860.29
2018-06-21T08:08:04.289Z,99869.51
2018-06-21T08:10:33.447Z,99869.51
2018-06-21T08:13:02.073Z,99875.22
2018-06-21T08:15:31.068Z,99869.94
2018-06-21T08:18:00.319Z,99868.62
2018-06-21T08:20:28.874Z,99860.73
2018-06-21T08:22:57.343Z,99855.02
2018-06-21T08:25:26.102Z,99857.22
2018-06-21T08:27:54.585Z,99795.33
2018-06-21T08:30:23.073Z,99855.02
2018-06-21T08:32:52.417Z,99855.02
2018-06-21T08:35:20.961Z,99847.55
2018-06-21T08:37:49.400Z,99848.43
2018-06-21T08:40:18.186Z,99848.42
2018-06-21T08:42:47.413Z,99850.61
2018-06-21T08:45:15.881Z,99852.80
2018-06-21T08:47:44.759Z,99848.85
2018-06-21T08:50:13.678Z,99851.05
2018-06-21T08:52:42.262Z,99844.46
2018-06-21T08:55:11.298Z,99838.30
2018-06-21T08:57:40.249Z,99832.56
2018-06-21T09:00:08.766Z,99817.55
2018-06-21T09:02:37.308Z,99824.08
2018-06-21T09:05:06.397Z,99820.91
2018-06-21T09:07:35.118Z,99813.32
2018-06-21T09:10:04.849Z,99815.42
2018-06-21T09:12:36.721Z,99811.77
2018-06-21T09:15:06.798Z,99799.30
2018-06-21T09:17:35.567Z,99789.50
2018-06-21T09:20:05.139Z,99783.14
2018-06-21T09:22:33.798Z,99775.85
2018-06-21T09:25:03.302Z,99778.57
2018-06-21T09:27:32.345Z,99774.22
2018-06-21T09:30:01.401Z,99772.97
2018-06-21T09:32:30.849Z,99783.22
2018-06-21T09:34:59.413Z,99775.74
2018-06-21T09:37:32.982Z,99770.88
2018-06-21T09:40:07.157Z,99755.84
2018-06-21T09:42:40.986Z,99748.83
2018-06-21T09:45:09.643Z,99752.64
2018-06-21T09:47:43.545Z,99741.01
2018-06-21T09:50:17.172Z,99743.73
2018-06-21T09:52:46.533Z,99744.70
2018-06-21T09:55:15.616Z,99731.19
2018-06-21T09:57:44.102Z,99721.02
2018-06-21T10:00:16.742Z,99722.16
2018-06-21T10:02:46.155Z,99722.81
2018-06-21T10:05:14.608Z,99737.50
2018-06-21T10:07:43.069Z,99736.63
2018-06-21T10:10:11.850Z,99739.41
2018-06-21T10:12:42.744Z,99733.98
2018-06-21T10:15:11.192Z,99736.13
2018-06-21T10:17:39.938Z,99732.22
2018-06-21T10:20:08.704Z,99730.20
2018-06-21T10:22:37.141Z,99717.91
2018-06-21T10:25:05.673Z,99712.47
2018-06-21T10:27:34.221Z,99709.14
2018-06-21T10:30:03.829Z,99700.15
2018-06-21T10:32:33.700Z,99692.56
2018-06-21T10:35:02.383Z,99681.25
2018-06-21T10:37:31.043Z,99676.77
2018-06-21T10:39:59.957Z,99673.41
2018-06-21T10:42:28.581Z,99663.22
2018-06-21T10:44:57.144Z,99648.28
2018-06-21T10:47:26.197Z,99639.86
2018-06-21T10:49:54.641Z,99632.23
2018-06-21T10:52:23.109Z,99623.23
2018-06-21T10:54:51.901Z,99606.77
2018-06-21T10:57:20.342Z,99593.92
2018-06-21T10:59:48.797Z,99600.25
2018-06-21T11:02:18.704Z,99600.10
2018-06-21T11:04:47.339Z,99593.73
2018-06-21T11:07:15.894Z,99601.56
2018-06-21T11:09:44.869Z,99605.16
2018-06-21T11:12:13.554Z,99612.37
2018-06-21T11:14:42.026Z,99611.75
2018-06-21T11:17:10.850Z,99619.56
2018-06-21T11:19:39.468Z,99363.92
2018-06-21T11:22:08.445Z,99622.55
2018-06-21T11:24:37.006Z,99611.75
2018-06-21T11:27:05.452Z,99620.23
2018-06-21T11:29:34.519Z,99634.45
2018-06-21T11:32:03.042Z,99634.20
2018-06-21T11:34:31.479Z,99626.42
2018-06-21T11:37:00.113Z,99632.63
2018-06-21T11:39:28.884Z,99619.98
2018-06-21T11:41:57.298Z,99631.88
2018-06-21T11:44:26.043Z,99632.84
2018-06-21T11:46:55.357Z,99628.14
2018-06-21T11:49:23.802Z,99631.53
2018-06-21T11:51:52.257Z,99621.47
2018-06-21T11:54:21.130Z,99618.28
2018-06-21T11:56:49.922Z,99614.17
2018-06-21T11:59:18.547Z,99621.37
2018-06-21T12:01:47.162Z,99609.31
2018-06-21T12:04:15.710Z,99615.36
2018-06-21T12:06:44.299Z,99616.59
2018-06-21T12:09:13.036Z,99619.45
2018-06-21T12:11:41.989Z,99636.52
2018-06-21T12:14:10.704Z,99634.17
2018-06-21T12:16:39.585Z,99629.51
2018-06-21T12:19:08.263Z,99627.47
2018-06-21T12:21:36.742Z,99621.86
2018-06-21T12:24:05.673Z,99610.59
2018-06-21T12:26:35.034Z,99603.99
2018-06-21T12:29:04.337Z,99599.54
2018-06-21T12:31:33.638Z,99609.55
2018-06-21T12:34:02.426Z,99600.13
2018-06-21T12:36:31.112Z,99584.90
2018-06-21T12:39:00.555Z,99573.05
2018-06-21T12:41:29.096Z,99578.55
2018-06-21T12:43:57.577Z,99573.44
2018-06-21T12:46:27.114Z,99576.45
2018-06-21T12:48:56.274Z,99576.64
2018-06-21T12:51:24.755Z,99578.33
2018-06-21T12:53:53.645Z,99571.24
2018-06-21T12:56:22.387Z,99572.15
2018-06-21T12:58:50.978Z,99579.16
2018-06-21T13:01:20.009Z,99574.22
2018-06-21T13:03:48.631Z,99571.86
2018-06-21T13:06:17.094Z,99579.36
2018-06-21T13:08:56.882Z,99574.89
2018-06-21T13:12:45.358Z,99570.91
2018-06-21T13:15:14.087Z,99566.26
2018-06-21T13:17:42.785Z,99559.09
2018-06-21T13:20:11.231Z,99568.88
2018-06-21T13:22:40.019Z,99567.96
2018-06-21T13:25:08.525Z,99556.67
2018-06-21T13:27:37.210Z,99547.42
2018-06-21T13:30:07.557Z,99548.47
2018-06-21T13:32:36.199Z,99541.88
2018-06-21T13:35:04.962Z,99527.39
2018-06-21T13:37:34.120Z,99524.56
2018-06-21T13:40:03.402Z,99528.39
2018-06-21T13:42:32.038Z,99527.27
2018-06-21T13:45:00.934Z,99526.44
2018-06-21T13:47:29.880Z,99528.08
2018-06-21T13:49:58.305Z,99519.98
2018-06-21T13:52:27.225Z,99528.19
2018-06-21T13:54:55.665Z,99519.66
2018-06-21T13:57:24.110Z,99511.11
2018-06-21T13:59:52.862Z,99515.63
2018-06-21T14:02:21.278Z,99515.39
2018-06-21T14:04:49.712Z,99521.77
2018-06-21T14:07:18.633Z,99534.75
2018-06-21T14:09:47.149Z,99554.52
2018-06-21T14:12:15.565Z,99552.27
2018-06-21T14:14:44.409Z,99543.97
2018-06-21T14:17:13.037Z,99513.97
2018-06-21T14:19:41.576Z,99511.98
2018-06-21T14:22:10.143Z,99494.08
2018-06-21T14:24:38.762Z,99508.70
2018-06-21T14:27:07.466Z,99506.95
2018-06-21T14:29:36.026Z,99492.45
2018-06-21T14:32:04.502Z,99494.63
2018-06-21T14:34:33.019Z,99495.91
2018-06-21T14:37:01.453Z,99496.30
2018-06-21T14:39:29.875Z,99496.23
2018-06-21T14:41:58.660Z,99489.59
2018-06-21T14:44:27.443Z,99480.27
2018-06-21T14:46:55.850Z,99484.59
2018-06-21T14:49:24.558Z,99482.72
2018-06-21T14:51:53.232Z,99489.98
2018-06-21T14:54:21.788Z,99482.67
2018-06-21T14:56:50.317Z,99485.05
2018-06-21T14:59:18.932Z,99495.06
2018-06-21T15:01:47.609Z,99501.62
2018-06-21T15:04:16.046Z,99518.88
2018-06-21T15:06:44.900Z,99517.59
2018-06-21T15:09:14.341Z,99511.52
2018-06-21T15:11:42.900Z,99507.84
2018-06-21T15:14:11.690Z,99490.92
2018-06-21T15:16:40.462Z,99482.66
2018-06-21T15:19:08.980Z,99474.39
2018-06-21T15:21:37.826Z,99483.20
2018-06-21T15:24:06.385Z,99486.04
2018-06-21T15:26:35.067Z,99481.33
2018-06-21T15:29:03.752Z,99465.94
2018-06-21T15:31:32.224Z,99470.34
2018-06-21T15:34:00.782Z,99475.19
2018-06-21T15:36:29.323Z,99462.08
2018-06-21T15:38:59.329Z,99457.23
2018-06-21T15:41:29.221Z,99450.64
2018-06-21T15:43:58.229Z,99445.70
2018-06-21T15:46:26.694Z,99441.91
2018-06-21T15:48:55.213Z,99443.73
2018-06-21T15:51:24.077Z,99438.17
2018-06-21T15:53:53.837Z,99437.63
2018-06-21T15:56:22.382Z,99431.45
2018-06-21T15:58:50.801Z,99444.25
2018-06-21T16:01:19.324Z,99444.83
2018-06-21T16:03:48.793Z,99433.88
2018-06-21T16:06:17.267Z,99420.27
2018-06-21T16:08:46.129Z,99420.79
2018-06-21T16:11:15.058Z,99417.78
2018-06-21T16:13:43.610Z,99423.17
2018-06-21T16:16:12.056Z,99427.82
2018-06-21T16:18:40.634Z,99420.45
2018-06-21T16:21:09.053Z,99420.05
2018-06-21T16:23:37.474Z,99430.69
2018-06-21T16:26:06.374Z,99435.09
2018-06-21T16:28:34.890Z,99420.22
2018-06-21T16:31:04.059Z,99404.91
2018-06-21T16:33:32.594Z,99407.60
2018-06-21T16:36:01.437Z,99399.37
2018-06-21T16:38:29.901Z,99395.99
2018-06-21T16:40:58.432Z,99386.88
2018-06-21T16:43:26.885Z,99380.36
2018-06-21T16:45:55.313Z,99385.66
2018-06-21T16:48:23.759Z,99381.36
2018-06-21T16:50:52.628Z,99380.55
2018-06-21T16:53:21.134Z,99382.81
2018-06-21T16:55:49.733Z,99380.66
2018-06-21T16:58:18.345Z,99346.64
2018-06-21T17:00:47.233Z,99370.66
2018-06-21T17:03:15.697Z,99375.98
2018-06-21T17:05:44.270Z,99376.85
2018-06-21T17:08:12.782Z,99383.86
2018-06-21T17:10:41.257Z,99381.70
2018-06-21T17:13:09.710Z,99380.79
2018-06-21T17:15:38.654Z,99385.98
2018-06-21T17:18:07.906Z,99381.14
2018-06-21T17:20:36.402Z,99374.98
2018-06-21T17:23:04.881Z,99375.41
2018-06-21T17:25:33.798Z,99367.52
2018-06-21T17:28:02.634Z,99333.05
2018-06-21T17:30:31.043Z,99358.87
2018-06-21T17:33:00.121Z,99347.48
2018-06-21T17:35:28.627Z,99346.56
2018-06-21T17:37:57.058Z,99338.27
2018-06-21T17:40:25.529Z,99330.39
2018-06-21T17:42:54.333Z,99324.22
2018-06-21T17:45:22.808Z,99319.36
2018-06-21T17:47:51.274Z,99316.70
2018-06-21T17:50:19.821Z,99316.64
2018-06-21T17:52:48.246Z,99316.13
2018-06-21T17:55:16.935Z,99310.86
2018-06-21T17:57:45.598Z,99320.14
2018-06-21T18:00:14.497Z,99318.84
2018-06-21T18:02:42.991Z,99325.51
2018-06-21T18:05:12.658Z,99316.36
2018-06-21T18:07:41.405Z,99310.27
2018-06-21T18:10:09.862Z,99309.02
2018-06-21T18:12:39.242Z,99301.17
2018-06-21T18:15:07.874Z,99302.54
2018-06-21T18:17:36.437Z,99304.34
2018-06-21T18:20:04.993Z,99304.37
2018-06-21T18:22:34.593Z,99298.67
2018-06-21T18:25:03.127Z,99292.08
2018-06-21T18:27:31.557Z,99287.25
2018-06-21T18:30:00.095Z,99290.34
2018-06-21T18:32:28.951Z,99284.23
2018-06-21T18:34:57.362Z,99293.89
2018-06-21T18:37:26.229Z,99296.53
2018-06-21T18:39:54.899Z,99293.00
2018-06-21T18:42:23.404Z,99289.46
2018-06-21T18:44:51.945Z,99286.41
2018-06-21T18:47:20.515Z,99279.83
2018-06-21T18:49:48.990Z,99284.20
2018-06-21T18:52:17.406Z,99284.61
2018-06-21T18:54:45.958Z,99279.72
2018-06-21T18:57:14.900Z,99282.77
2018-06-21T18:59:43.302Z,99284.55
2018-06-21T19:02:11.890Z,99273.58
2018-06-21T19:04:40.817Z,99276.67
2018-06-21T19:07:14.686Z,99272.27
2018-06-21T19:09:48.862Z,99270.02
2018-06-21T19:12:17.433Z,99270.06
2018-06-21T19:14:46.326Z,99262.27
2018-06-21T19:17:14.745Z,99260.97
2018-06-21T19:19:43.238Z,99262.77
2018-06-21T19:22:11.701Z,99260.63
2018-06-21T19:24:40.705Z,99262.45
2018-06-21T19:27:09.773Z,99266.92
2018-06-21T19:29:39.094Z,99268.70
2018-06-21T19:32:07.501Z,99259.94
2018-06-21T19:34:36.146Z,99254.26
2018-06-21T19:37:04.691Z,99252.06
2018-06-21T19:39:33.145Z,99244.61
2018-06-21T19:42:01.884Z,99248.61
2018-06-21T19:44:30.545Z,99242.06
2018-06-21T19:46:58.998Z,99232.45
2018-06-21T19:49:27.466Z,99231.17
2018-06-21T19:51:56.302Z,99230.73
2018-06-21T19:54:24.731Z,99230.73
2018-06-21T19:56:53.577Z,99225.45
2018-06-21T19:59:22.469Z,99223.30
2018-06-21T20:01:51.508Z,99221.55
2018-06-21T20:04:20.111Z,99221.11
2018-06-21T20:06:49.561Z,99217.61
2018-06-21T20:09:18.505Z,99220.27
2018-06-21T20:11:47.593Z,99214.16
2018-06-21T20:14:16.115Z,99216.83
2018-06-21T20:16:44.993Z,99203.70
2018-06-21T20:19:19.009Z,99205.03
2018-06-21T20:21:47.546Z,99196.72
2018-06-21T20:24:16.113Z,99200.66
2018-06-21T20:26:44.583Z,99196.29
2018-06-21T20:29:19.677Z,99194.09
2018-06-21T20:31:48.560Z,99192.36
2018-06-21T20:34:16.969Z,99160.94
2018-06-21T20:36:46.045Z,99190.19
2018-06-21T20:39:14.890Z,99190.19
2018-06-21T20:41:43.622Z,99190.22
2018-06-21T20:44:12.053Z,99184.55
2018-06-21T20:46:41.096Z,99177.14
2018-06-21T20:49:09.606Z,99181.54
2018-06-21T20:51:38.097Z,99171.94
2018-06-21T20:54:07.269Z,99174.56
2018-06-21T20:56:35.941Z,99171.93
2018-06-21T20:59:04.509Z,99170.19
2018-06-21T21:01:39.646Z,99157.94
2018-06-21T21:04:08.521Z,99159.23
2018-06-21T21:06:36.936Z,99157.01
2018-06-21T21:09:07.360Z,99156.11
2018-06-21T21:11:35.846Z,99155.22
2018-06-21T21:14:04.531Z,99152.14
2018-06-21T21:16:33.110Z,99150.84
2018-06-21T21:19:01.621Z,99155.23
2018-06-21T21:21:30.197Z,99146.05
2018-06-21T21:23:58.717Z,99147.82
2018-06-21T21:26:27.217Z,99138.66
2018-06-21T21:28:55.646Z,99141.30
2018-06-21T21:31:24.098Z,99136.06
2018-06-21T21:33:52.599Z,99135.20
2018-06-21T21:36:21.097Z,99129.97
2018-06-21T21:38:49.546Z,99131.30
2018-06-21T21:41:18.049Z,99129.55
2018-06-21T21:43:46.807Z,99132.64
2018-06-21T21:46:18.129Z,99125.65
2018-06-21T21:48:46.669Z,99133.06
2018-06-21T21:51:15.208Z,99128.27
2018-06-21T21:53:43.982Z,99126.08
2018-06-21T21:56:12.969Z,99125.63
2018-06-21T21:58:41.584Z,99124.31
2018-06-21T22:01:10.414Z,99126.52
2018-06-21T22:03:39.237Z,99117.34
2018-06-21T22:06:07.801Z,99123.91
2018-06-21T22:08:36.413Z,99117.36
2018-06-21T22:11:05.954Z,99115.17
2018-06-21T22:13:35.303Z,99119.56
2018-06-21T22:16:04.329Z,99115.20
2018-06-21T22:18:33.498Z,99117.84
2018-06-21T22:21:01.963Z,99111.30
2018-06-21T22:23:30.666Z,99110.86
2018-06-21T22:26:00.549Z,99118.30
2018-06-21T22:28:28.985Z,99110.02
2018-06-21T22:30:58.337Z,99113.53
2018-06-21T22:33:26.839Z,99103.92
2018-06-21T22:35:56.153Z,99105.23
2018-06-21T22:38:24.571Z,99104.37
2018-06-21T22:40:53.177Z,99100.45
2018-06-21T22:43:21.703Z,99099.58
2018-06-21T22:45:50.145Z,99099.14
2018-06-21T22:48:19.077Z,99103.53
2018-06-21T22:50:47.770Z,99100.48
2018-06-21T22:53:16.169Z,99099.17
2018-06-21T22:55:45.101Z,99099.63
2018-06-21T22:58:13.695Z,99099.63
2018-06-21T23:00:42.789Z,99091.75
2018-06-21T23:03:11.777Z,99098.75
2018-06-21T23:05:40.258Z,99101.81
2018-06-21T23:08:08.867Z,99097.01
2018-06-21T23:10:37.529Z,99086.53
2018-06-21T23:13:05.961Z,99088.70
2018-06-21T23:15:34.605Z,99089.61
2018-06-21T23:18:03.555Z,99086.11
2018-06-21T23:20:32.019Z,99085.67
2018-06-21T23:23:00.479Z,99084.75
2018-06-21T23:25:36.021Z,99079.95
2018-06-21T23:28:04.481Z,99084.30
2018-06-21T23:30:34.270Z,99080.38
2018-06-21T23:33:03.263Z,99074.25
2018-06-21T23:35:31.673Z,99071.19
2018-06-21T23:38:00.086Z,99067.69
2018-06-21T23:40:28.743Z,99063.30
2018-06-21T23:42:57.168Z,99064.59
2018-06-21T23:45:26.705Z,99063.69
2018-06-21T23:47:55.413Z,99060.17
2018-06-21T23:50:24.180Z,99054.94
2018-06-21T23:52:52.626Z,99049.71
2018-06-21T23:55:21.491Z,99051.88
2018-06-21T23:57:50.229Z,99044.02
